sensor_id;sensor_type;location;lat;lon;timestamp;pressure;altitude;pressure_sealevel;temperature
75353;BMP280;76704;51.574;7.088;2024-03-02T00:02:06;65899.34;;;12.58
75353;BMP280;76704;51.574;7.088;2024-03-02T00:04:53;65929.97;;;12.51
75353;BMP280;76704;51.574;7.088;2024-03-02T00:07:23;66257.22;;;12.60
75353;BMP280;76704;51.574;7.088;2024-03-02T00:09:59;66249.09;;;12.55
75353;BMP280;76704;51.574;7.088;2024-03-02T00:12:29;65974.25;;;12.58
75353;BMP280;76704;51.574;7.088;2024-03-02T00:14:59;66343.09;;;12.64
75353;BMP280;76704;51.574;7.088;2024-03-02T00:17:32;66209.03;;;12.60
75353;BMP280;76704;51.574;7.088;2024-03-02T00:19:59;66222.63;;;12.58
75353;BMP280;76704;51.574;7.088;2024-03-02T00:22:35;66344.53;;;12.59
75353;BMP280;76704;51.574;7.088;2024-03-02T00:25:05;66286.16;;;12.60
75353;BMP280;76704;51.574;7.088;2024-03-02T00:27:33;66335.03;;;12.58
75353;BMP280;76704;51.574;7.088;2024-03-02T00:32:59;66534.81;;;12.62
75353;BMP280;76704;51.574;7.088;2024-03-02T00:35:29;66644.84;;;12.66
75353;BMP280;76704;51.574;7.088;2024-03-02T00:37:57;66710.09;;;12.67
75353;BMP280;76704;51.574;7.088;2024-03-02T00:40:29;66817.84;;;12.65
75353;BMP280;76704;51.574;7.088;2024-03-02T00:42:57;66884.56;;;12.67
75353;BMP280;76704;51.574;7.088;2024-03-02T00:45:27;66761.81;;;12.62
75353;BMP280;76704;51.574;7.088;2024-03-02T00:47:55;66775.78;;;12.68
75353;BMP280;76704;51.574;7.088;2024-03-02T00:50:23;67002.66;;;12.70
75353;BMP280;76704;51.574;7.088;2024-03-02T00:53:04;66982.41;;;12.69
75353;BMP280;76704;51.574;7.088;2024-03-02T00:55:42;66953.78;;;12.72
75353;BMP280;76704;51.574;7.088;2024-03-02T00:58:14;67158.06;;;12.76
75353;BMP280;76704;51.574;7.088;2024-03-02T01:00:44;66967.88;;;12.70
75353;BMP280;76704;51.574;7.088;2024-03-02T01:03:14;66964.00;;;12.72
75353;BMP280;76704;51.574;7.088;2024-03-02T01:05:43;67143.19;;;12.74
75353;BMP280;76704;51.574;7.088;2024-03-02T01:08:12;67288.28;;;12.75
75353;BMP280;76704;51.574;7.088;2024-03-02T01:10:42;67361.25;;;12.73
75353;BMP280;76704;51.574;7.088;2024-03-02T01:13:10;67328.44;;;12.75
75353;BMP280;76704;51.574;7.088;2024-03-02T01:15:38;67446.09;;;12.77
75353;BMP280;76704;51.574;7.088;2024-03-02T01:18:08;67534.63;;;12.75
75353;BMP280;76704;51.574;7.088;2024-03-02T01:20:39;67596.91;;;12.81
75353;BMP280;76704;51.574;7.088;2024-03-02T01:23:09;67484.44;;;12.81
75353;BMP280;76704;51.574;7.088;2024-03-02T01:25:37;67749.72;;;12.78
75353;BMP280;76704;51.574;7.088;2024-03-02T01:28:04;67699.53;;;12.84
75353;BMP280;76704;51.574;7.088;2024-03-02T01:30:31;67876.66;;;12.87
75353;BMP280;76704;51.574;7.088;2024-03-02T01:33:02;67936.44;;;12.91
75353;BMP280;76704;51.574;7.088;2024-03-02T01:35:32;68091.19;;;12.93
75353;BMP280;76704;51.574;7.088;2024-03-02T01:38:03;68007.25;;;12.89
75353;BMP280;76704;51.574;7.088;2024-03-02T01:40:34;67979.81;;;12.92
75353;BMP280;76704;51.574;7.088;2024-03-02T01:43:05;68268.72;;;12.99
75353;BMP280;76704;51.574;7.088;2024-03-02T01:45:35;68090.03;;;12.95
75353;BMP280;76704;51.574;7.088;2024-03-02T01:48:06;68376.97;;;13.00
75353;BMP280;76704;51.574;7.088;2024-03-02T01:50:35;68373.59;;;13.02
75353;BMP280;76704;51.574;7.088;2024-03-02T01:53:03;68630.66;;;13.07
75353;BMP280;76704;51.574;7.088;2024-03-02T01:55:33;68835.78;;;13.11
75353;BMP280;76704;51.574;7.088;2024-03-02T01:58:02;68914.66;;;13.10
75353;BMP280;76704;51.574;7.088;2024-03-02T02:00:33;68945.78;;;13.09
75353;BMP280;76704;51.574;7.088;2024-03-02T02:03:03;68946.09;;;13.14
75353;BMP280;76704;51.574;7.088;2024-03-02T02:05:34;69224.72;;;13.20
75353;BMP280;76704;51.574;7.088;2024-03-02T02:08:03;69300.22;;;13.23
75353;BMP280;76704;51.574;7.088;2024-03-02T02:10:33;69353.66;;;13.28
75353;BMP280;76704;51.574;7.088;2024-03-02T02:13:02;69344.16;;;13.24
75353;BMP280;76704;51.574;7.088;2024-03-02T02:15:32;69515.00;;;13.31
75353;BMP280;76704;51.574;7.088;2024-03-02T02:18:11;69466.31;;;13.12
75353;BMP280;76704;51.574;7.088;2024-03-02T02:20:41;69263.59;;;13.26
75353;BMP280;76704;51.574;7.088;2024-03-02T02:23:09;69287.09;;;13.28
75353;BMP280;76704;51.574;7.088;2024-03-02T02:25:37;69570.09;;;13.35
75353;BMP280;76704;51.574;7.088;2024-03-02T02:28:07;69770.63;;;13.39
75353;BMP280;76704;51.574;7.088;2024-03-02T02:30:34;69788.88;;;13.39
75353;BMP280;76704;51.574;7.088;2024-03-02T02:33:01;69527.09;;;13.37
75353;BMP280;76704;51.574;7.088;2024-03-02T02:35:30;69808.06;;;13.42
75353;BMP280;76704;51.574;7.088;2024-03-02T02:37:58;69939.47;;;13.44
75353;BMP280;76704;51.574;7.088;2024-03-02T02:40:31;69869.25;;;13.41
75353;BMP280;76704;51.574;7.088;2024-03-02T02:43:04;69837.69;;;13.39
75353;BMP280;76704;51.574;7.088;2024-03-02T02:45:33;69981.28;;;13.46
75353;BMP280;76704;51.574;7.088;2024-03-02T02:48:02;69815.97;;;13.47
75353;BMP280;76704;51.574;7.088;2024-03-02T02:50:31;70065.97;;;13.50
75353;BMP280;76704;51.574;7.088;2024-03-02T02:53:02;70074.00;;;13.50
75353;BMP280;76704;51.574;7.088;2024-03-02T02:55:39;70152.81;;;13.54
75353;BMP280;76704;51.574;7.088;2024-03-02T02:58:12;70369.03;;;13.58
75353;BMP280;76704;51.574;7.088;2024-03-02T03:00:40;70281.56;;;13.56
75353;BMP280;76704;51.574;7.088;2024-03-02T03:03:08;70455.91;;;13.61
75353;BMP280;76704;51.574;7.088;2024-03-02T03:05:35;70507.53;;;13.59
75353;BMP280;76704;51.574;7.088;2024-03-02T03:08:05;70575.72;;;13.58
75353;BMP280;76704;51.574;7.088;2024-03-02T03:10:32;70684.03;;;13.66
75353;BMP280;76704;51.574;7.088;2024-03-02T03:13:00;70799.41;;;13.69
75353;BMP280;76704;51.574;7.088;2024-03-02T03:15:30;70620.09;;;13.67
75353;BMP280;76704;51.574;7.088;2024-03-02T03:18:00;70584.09;;;13.68
75353;BMP280;76704;51.574;7.088;2024-03-02T03:20:35;70557.22;;;13.68
75353;BMP280;76704;51.574;7.088;2024-03-02T03:23:05;70680.69;;;13.71
75353;BMP280;76704;51.574;7.088;2024-03-02T03:25:34;70852.00;;;13.73
75353;BMP280;76704;51.574;7.088;2024-03-02T03:28:25;70974.38;;;13.77
75353;BMP280;76704;51.574;7.088;2024-03-02T03:30:54;70989.44;;;13.76
75353;BMP280;76704;51.574;7.088;2024-03-02T03:33:21;71015.19;;;13.78
75353;BMP280;76704;51.574;7.088;2024-03-02T03:35:49;71217.09;;;13.81
75353;BMP280;76704;51.574;7.088;2024-03-02T03:38:26;71065.63;;;13.80
75353;BMP280;76704;51.574;7.088;2024-03-02T03:40:57;71062.94;;;13.80
75353;BMP280;76704;51.574;7.088;2024-03-02T03:43:32;71321.84;;;13.86
75353;BMP280;76704;51.574;7.088;2024-03-02T03:45:59;71465.75;;;13.92
75353;BMP280;76704;51.574;7.088;2024-03-02T03:48:27;71285.88;;;13.80
75353;BMP280;76704;51.574;7.088;2024-03-02T03:50:59;71424.94;;;13.92
75353;BMP280;76704;51.574;7.088;2024-03-02T03:53:29;71091.88;;;13.87
75353;BMP280;76704;51.574;7.088;2024-03-02T03:55:57;71348.63;;;13.91
75353;BMP280;76704;51.574;7.088;2024-03-02T03:58:27;71456.59;;;13.94
75353;BMP280;76704;51.574;7.088;2024-03-02T04:00:57;71463.59;;;13.93
75353;BMP280;76704;51.574;7.088;2024-03-02T04:03:27;71477.03;;;13.95
75353;BMP280;76704;51.574;7.088;2024-03-02T04:05:55;71533.97;;;13.96
75353;BMP280;76704;51.574;7.088;2024-03-02T04:08:25;71494.75;;;13.97
75353;BMP280;76704;51.574;7.088;2024-03-02T04:10:54;71377.09;;;13.95
75353;BMP280;76704;51.574;7.088;2024-03-02T04:13:25;71421.13;;;13.96
75353;BMP280;76704;51.574;7.088;2024-03-02T04:15:54;71374.41;;;13.92
75353;BMP280;76704;51.574;7.088;2024-03-02T04:18:22;71419.56;;;13.92
75353;BMP280;76704;51.574;7.088;2024-03-02T04:20:51;71489.91;;;13.97
75353;BMP280;76704;51.574;7.088;2024-03-02T04:23:23;71585.59;;;13.91
75353;BMP280;76704;51.574;7.088;2024-03-02T04:25:59;71645.22;;;13.97
75353;BMP280;76704;51.574;7.088;2024-03-02T04:28:29;71319.03;;;13.96
75353;BMP280;76704;51.574;7.088;2024-03-02T04:30:56;71210.53;;;13.92
75353;BMP280;76704;51.574;7.088;2024-03-02T04:33:27;71279.31;;;13.91
75353;BMP280;76704;51.574;7.088;2024-03-02T04:35:57;71093.97;;;13.91
75353;BMP280;76704;51.574;7.088;2024-03-02T04:38:27;71128.88;;;13.91
75353;BMP280;76704;51.574;7.088;2024-03-02T04:40:57;71114.41;;;13.90
75353;BMP280;76704;51.574;7.088;2024-03-02T04:43:27;70874.88;;;13.85
75353;BMP280;76704;51.574;7.088;2024-03-02T04:45:55;70813.16;;;13.82
75353;BMP280;76704;51.574;7.088;2024-03-02T04:48:23;71189.59;;;13.90
75353;BMP280;76704;51.574;7.088;2024-03-02T04:50:52;71029.59;;;13.84
75353;BMP280;76704;51.574;7.088;2024-03-02T04:53:22;71118.72;;;13.87
75353;BMP280;76704;51.574;7.088;2024-03-02T04:55:50;71103.66;;;13.90
75353;BMP280;76704;51.574;7.088;2024-03-02T04:58:40;70944.66;;;13.87
75353;BMP280;76704;51.574;7.088;2024-03-02T05:01:11;70808.84;;;13.83
75353;BMP280;76704;51.574;7.088;2024-03-02T05:03:47;70623.63;;;13.78
75353;BMP280;76704;51.574;7.088;2024-03-02T05:06:18;70757.84;;;13.81
75353;BMP280;76704;51.574;7.088;2024-03-02T05:08:48;70780.97;;;13.80
75353;BMP280;76704;51.574;7.088;2024-03-02T05:11:17;70529.16;;;13.75
75353;BMP280;76704;51.574;7.088;2024-03-02T05:14:20;70379.94;;;13.74
75353;BMP280;76704;51.574;7.088;2024-03-02T05:16:47;70211.47;;;13.69
75353;BMP280;76704;51.574;7.088;2024-03-02T05:19:17;70397.69;;;13.73
75353;BMP280;76704;51.574;7.088;2024-03-02T05:21:49;70347.91;;;13.66
75353;BMP280;76704;51.574;7.088;2024-03-02T05:24:31;70375.75;;;13.69
75353;BMP280;76704;51.574;7.088;2024-03-02T05:27:01;70173.50;;;13.63
75353;BMP280;76704;51.574;7.088;2024-03-02T05:29:28;70149.28;;;13.66
75353;BMP280;76704;51.574;7.088;2024-03-02T05:31:57;70124.72;;;13.60
75353;BMP280;76704;51.574;7.088;2024-03-02T05:34:28;69916.44;;;13.43
75353;BMP280;76704;51.574;7.088;2024-03-02T05:36:58;69867.31;;;13.53
75353;BMP280;76704;51.574;7.088;2024-03-02T05:39:25;70045.22;;;13.61
75353;BMP280;76704;51.574;7.088;2024-03-02T05:41:53;69946.03;;;13.59
75353;BMP280;76704;51.574;7.088;2024-03-02T05:44:23;69724.59;;;13.52
75353;BMP280;76704;51.574;7.088;2024-03-02T05:46:53;69598.66;;;13.47
75353;BMP280;76704;51.574;7.088;2024-03-02T05:49:20;69519.88;;;13.43
75353;BMP280;76704;51.574;7.088;2024-03-02T05:51:48;69216.44;;;13.38
75353;BMP280;76704;51.574;7.088;2024-03-02T05:54:19;69332.31;;;13.38
75353;BMP280;76704;51.574;7.088;2024-03-02T05:56:48;69248.56;;;13.40
75353;BMP280;76704;51.574;7.088;2024-03-02T05:59:26;69062.66;;;13.34
75353;BMP280;76704;51.574;7.088;2024-03-02T06:01:56;68820.00;;;13.28
75353;BMP280;76704;51.574;7.088;2024-03-02T06:04:24;69011.53;;;13.26
75353;BMP280;76704;51.574;7.088;2024-03-02T06:06:52;68866.59;;;13.29
75353;BMP280;76704;51.574;7.088;2024-03-02T06:09:24;68735.06;;;13.10
75353;BMP280;76704;51.574;7.088;2024-03-02T06:11:52;68749.38;;;13.24
75353;BMP280;76704;51.574;7.088;2024-03-02T06:14:20;68639.97;;;13.14
75353;BMP280;76704;51.574;7.088;2024-03-02T06:16:49;68450.69;;;13.15
75353;BMP280;76704;51.574;7.088;2024-03-02T06:19:17;68355.47;;;13.11
75353;BMP280;76704;51.574;7.088;2024-03-02T06:21:46;68309.41;;;13.10
75353;BMP280;76704;51.574;7.088;2024-03-02T06:24:14;68139.47;;;13.01
75353;BMP280;76704;51.574;7.088;2024-03-02T06:26:41;68105.00;;;13.04
75353;BMP280;76704;51.574;7.088;2024-03-02T06:29:08;68021.72;;;12.99
75353;BMP280;76704;51.574;7.088;2024-03-02T06:31:38;67955.22;;;12.99
75353;BMP280;76704;51.574;7.088;2024-03-02T06:34:07;67979.34;;;12.99
75353;BMP280;76704;51.574;7.088;2024-03-02T06:36:38;67955.91;;;12.97
75353;BMP280;76704;51.574;7.088;2024-03-02T06:39:08;67763.50;;;12.89
75353;BMP280;76704;51.574;7.088;2024-03-02T06:41:39;67750.59;;;12.90
75353;BMP280;76704;51.574;7.088;2024-03-02T06:44:08;67767.81;;;12.88
75353;BMP280;76704;51.574;7.088;2024-03-02T06:46:39;67513.03;;;12.77
75353;BMP280;76704;51.574;7.088;2024-03-02T06:49:10;67356.03;;;12.78
75353;BMP280;76704;51.574;7.088;2024-03-02T06:51:37;67331.44;;;12.78
75353;BMP280;76704;51.574;7.088;2024-03-02T06:54:07;67297.00;;;12.73
75353;BMP280;76704;51.574;7.088;2024-03-02T06:56:34;67167.97;;;12.72
75353;BMP280;76704;51.574;7.088;2024-03-02T06:59:02;67160.13;;;12.70
75353;BMP280;76704;51.574;7.088;2024-03-02T07:01:32;67098.75;;;12.67
75353;BMP280;76704;51.574;7.088;2024-03-02T07:04:02;67063.13;;;12.64
75353;BMP280;76704;51.574;7.088;2024-03-02T07:06:34;66989.84;;;12.62
75353;BMP280;76704;51.574;7.088;2024-03-02T07:09:10;66870.16;;;12.52
75353;BMP280;76704;51.574;7.088;2024-03-02T07:11:43;66807.22;;;12.56
75353;BMP280;76704;51.574;7.088;2024-03-02T07:14:16;66719.00;;;12.48
75353;BMP280;76704;51.574;7.088;2024-03-02T07:16:43;66690.38;;;12.52
75353;BMP280;76704;51.574;7.088;2024-03-02T07:19:13;66647.25;;;12.49
75353;BMP280;76704;51.574;7.088;2024-03-02T07:21:42;66694.91;;;12.48
75353;BMP280;76704;51.574;7.088;2024-03-02T07:24:12;66605.63;;;12.47
75353;BMP280;76704;51.574;7.088;2024-03-02T07:26:43;66423.41;;;12.44
75353;BMP280;76704;51.574;7.088;2024-03-02T07:29:17;66535.78;;;12.44
75353;BMP280;76704;51.574;7.088;2024-03-02T07:31:44;66527.47;;;12.41
75353;BMP280;76704;51.574;7.088;2024-03-02T07:34:13;66609.72;;;12.43
75353;BMP280;76704;51.574;7.088;2024-03-02T07:36:41;66731.09;;;12.44
75353;BMP280;76704;51.574;7.088;2024-03-02T07:39:11;66851.34;;;12.47
75353;BMP280;76704;51.574;7.088;2024-03-02T07:41:39;66923.78;;;12.44
75353;BMP280;76704;51.574;7.088;2024-03-02T07:44:08;67012.88;;;12.48
75353;BMP280;76704;51.574;7.088;2024-03-02T07:46:35;67386.56;;;12.55
75353;BMP280;76704;51.574;7.088;2024-03-02T07:49:07;66893.44;;;12.49
75353;BMP280;76704;51.574;7.088;2024-03-02T07:51:35;67429.22;;;12.57
75353;BMP280;76704;51.574;7.088;2024-03-02T07:54:07;67557.38;;;12.46
75353;BMP280;76704;51.574;7.088;2024-03-02T07:56:35;67598.53;;;12.55
75353;BMP280;76704;51.574;7.088;2024-03-02T07:59:07;67780.63;;;12.64
75353;BMP280;76704;51.574;7.088;2024-03-02T08:01:34;67838.88;;;12.66
75353;BMP280;76704;51.574;7.088;2024-03-02T08:04:03;67833.53;;;12.66
75353;BMP280;76704;51.574;7.088;2024-03-02T08:06:33;68041.69;;;12.59
75353;BMP280;76704;51.574;7.088;2024-03-02T08:09:03;68359.53;;;12.75
75353;BMP280;76704;51.574;7.088;2024-03-02T08:11:39;68755.22;;;12.69
75353;BMP280;76704;51.574;7.088;2024-03-02T08:14:09;68722.88;;;12.84
75353;BMP280;76704;51.574;7.088;2024-03-02T08:16:40;68600.66;;;12.85
75353;BMP280;76704;51.574;7.088;2024-03-02T08:19:07;68885.56;;;12.89
75353;BMP280;76704;51.574;7.088;2024-03-02T08:21:36;68996.50;;;12.90
75353;BMP280;76704;51.574;7.088;2024-03-02T08:24:07;68882.28;;;12.91
75353;BMP280;76704;51.574;7.088;2024-03-02T08:26:37;69400.81;;;13.00
75353;BMP280;76704;51.574;7.088;2024-03-02T08:29:07;69664.41;;;13.06
75353;BMP280;76704;51.574;7.088;2024-03-02T08:31:37;69912.00;;;13.12
75353;BMP280;76704;51.574;7.088;2024-03-02T08:34:09;70116.19;;;13.18
75353;BMP280;76704;51.574;7.088;2024-03-02T08:36:36;70185.41;;;13.18
75353;BMP280;76704;51.574;7.088;2024-03-02T08:39:04;70089.00;;;13.12
75353;BMP280;76704;51.574;7.088;2024-03-02T08:41:37;70658.34;;;13.31
75353;BMP280;76704;51.574;7.088;2024-03-02T08:44:06;70839.13;;;13.35
75353;BMP280;76704;51.574;7.088;2024-03-02T08:46:35;70996.31;;;13.41
75353;BMP280;76704;51.574;7.088;2024-03-02T08:49:05;71058.03;;;13.44
75353;BMP280;76704;51.574;7.088;2024-03-02T08:51:34;71328.59;;;13.46
75353;BMP280;76704;51.574;7.088;2024-03-02T08:54:04;71507.91;;;13.51
75353;BMP280;76704;51.574;7.088;2024-03-02T08:56:36;71682.97;;;13.59
75353;BMP280;76704;51.574;7.088;2024-03-02T08:59:06;71754.38;;;13.63
75353;BMP280;76704;51.574;7.088;2024-03-02T09:01:37;72114.84;;;13.71
75353;BMP280;76704;51.574;7.088;2024-03-02T09:04:14;72288.97;;;13.76
75353;BMP280;76704;51.574;7.088;2024-03-02T09:06:42;72234.69;;;13.78
75353;BMP280;76704;51.574;7.088;2024-03-02T09:09:09;72686.22;;;13.85
75353;BMP280;76704;51.574;7.088;2024-03-02T09:11:38;72833.00;;;13.89
75353;BMP280;76704;51.574;7.088;2024-03-02T09:14:08;72871.72;;;13.90
75353;BMP280;76704;51.574;7.088;2024-03-02T09:16:43;73285.97;;;14.03
75353;BMP280;76704;51.574;7.088;2024-03-02T09:19:20;73523.22;;;14.06
75353;BMP280;76704;51.574;7.088;2024-03-02T09:21:47;73724.56;;;14.13
75353;BMP280;76704;51.574;7.088;2024-03-02T09:24:17;73942.69;;;14.21
75353;BMP280;76704;51.574;7.088;2024-03-02T09:26:45;74339.69;;;14.32
75353;BMP280;76704;51.574;7.088;2024-03-02T09:29:14;74090.44;;;14.31
75353;BMP280;76704;51.574;7.088;2024-03-02T09:31:47;74198.00;;;14.28
75353;BMP280;76704;51.574;7.088;2024-03-02T09:34:14;73754.38;;;14.21
75353;BMP280;76704;51.574;7.088;2024-03-02T09:36:46;73513.94;;;14.22
75353;BMP280;76704;51.574;7.088;2024-03-02T09:39:13;74450.31;;;14.40
75353;BMP280;76704;51.574;7.088;2024-03-02T09:41:44;74799.69;;;14.51
75353;BMP280;76704;51.574;7.088;2024-03-02T09:44:12;74860.16;;;14.55
75353;BMP280;76704;51.574;7.088;2024-03-02T09:46:41;75028.34;;;14.59
75353;BMP280;76704;51.574;7.088;2024-03-02T09:49:14;75253.34;;;14.67
75353;BMP280;76704;51.574;7.088;2024-03-02T09:51:48;75341.38;;;14.71
75353;BMP280;76704;51.574;7.088;2024-03-02T09:54:17;75537.03;;;14.63
75353;BMP280;76704;51.574;7.088;2024-03-02T09:56:50;75521.16;;;14.78
75353;BMP280;76704;51.574;7.088;2024-03-02T09:59:18;75839.53;;;14.86
75353;BMP280;76704;51.574;7.088;2024-03-02T10:02:07;75623.41;;;14.85
75353;BMP280;76704;51.574;7.088;2024-03-02T10:04:36;75767.91;;;14.87
75353;BMP280;76704;51.574;7.088;2024-03-02T10:07:23;76276.16;;;15.02
75353;BMP280;76704;51.574;7.088;2024-03-02T10:09:52;76256.00;;;14.99
75353;BMP280;76704;51.574;7.088;2024-03-02T10:12:20;76331.41;;;15.06
75353;BMP280;76704;51.574;7.088;2024-03-02T10:15:03;76811.19;;;15.18
75353;BMP280;76704;51.574;7.088;2024-03-02T10:17:35;77291.53;;;15.27
75353;BMP280;76704;51.574;7.088;2024-03-02T10:20:27;77067.78;;;15.30
75353;BMP280;76704;51.574;7.088;2024-03-02T10:23:13;77282.50;;;15.36
75353;BMP280;76704;51.574;7.088;2024-03-02T10:25:43;77398.97;;;15.41
75353;BMP280;76704;51.574;7.088;2024-03-02T10:28:21;77961.88;;;15.52
75353;BMP280;76704;51.574;7.088;2024-03-02T10:30:48;78045.09;;;15.58
75353;BMP280;76704;51.574;7.088;2024-03-02T10:33:21;78251.47;;;15.59
75353;BMP280;76704;51.574;7.088;2024-03-02T10:35:49;78067.75;;;15.64
75353;BMP280;76704;51.574;7.088;2024-03-02T10:38:19;78516.13;;;15.76
75353;BMP280;76704;51.574;7.088;2024-03-02T10:40:49;78452.81;;;15.75
75353;BMP280;76704;51.574;7.088;2024-03-02T10:43:23;78907.13;;;15.84
75353;BMP280;76704;51.574;7.088;2024-03-02T10:45:52;79090.47;;;15.91
75353;BMP280;76704;51.574;7.088;2024-03-02T10:48:25;79718.72;;;16.01
75353;BMP280;76704;51.574;7.088;2024-03-02T10:50:54;79933.22;;;16.13
75353;BMP280;76704;51.574;7.088;2024-03-02T10:53:23;80611.56;;;16.22
75353;BMP280;76704;51.574;7.088;2024-03-02T10:55:57;80586.75;;;16.31
75353;BMP280;76704;51.574;7.088;2024-03-02T10:58:33;81067.13;;;16.45
75353;BMP280;76704;51.574;7.088;2024-03-02T11:01:03;81651.63;;;16.59
75353;BMP280;76704;51.574;7.088;2024-03-02T11:03:35;82343.13;;;16.75
75353;BMP280;76704;51.574;7.088;2024-03-02T11:06:08;83231.16;;;16.96
75353;BMP280;76704;51.574;7.088;2024-03-02T11:08:38;83954.56;;;17.18
75353;BMP280;76704;51.574;7.088;2024-03-02T11:11:15;85130.28;;;17.44
75353;BMP280;76704;51.574;7.088;2024-03-02T11:13:50;86231.22;;;17.73
75353;BMP280;76704;51.574;7.088;2024-03-02T11:16:38;87646.19;;;18.05
75353;BMP280;76704;51.574;7.088;2024-03-02T11:19:13;89050.25;;;18.44
75353;BMP280;76704;51.574;7.088;2024-03-02T11:21:45;90308.06;;;18.72
75353;BMP280;76704;51.574;7.088;2024-03-02T11:27:06;93063.16;;;19.52
75353;BMP280;76704;51.574;7.088;2024-03-02T11:30:01;94573.91;;;19.98
75353;BMP280;76704;51.574;7.088;2024-03-02T11:32:36;96116.75;;;20.42
75353;BMP280;76704;51.574;7.088;2024-03-02T11:35:15;97412.06;;;20.83
75353;BMP280;76704;51.574;7.088;2024-03-02T11:37:44;98472.06;;;21.23
75353;BMP280;76704;51.574;7.088;2024-03-02T11:40:12;99237.53;;;21.56
75353;BMP280;76704;51.574;7.088;2024-03-02T11:42:41;100105.75;;;21.86
75353;BMP280;76704;51.574;7.088;2024-03-02T11:45:16;101358.84;;;22.36
75353;BMP280;76704;51.574;7.088;2024-03-02T11:47:51;102364.13;;;22.74
75353;BMP280;76704;51.574;7.088;2024-03-02T11:50:51;103374.50;;;23.16
75353;BMP280;76704;51.574;7.088;2024-03-02T11:53:22;104088.31;;;23.48
75353;BMP280;76704;51.574;7.088;2024-03-02T11:55:52;104548.50;;;23.77
75353;BMP280;76704;51.574;7.088;2024-03-02T11:58:30;104774.50;;;24.10
75353;BMP280;76704;51.574;7.088;2024-03-02T12:00:57;105549.94;;;24.43
75353;BMP280;76704;51.574;7.088;2024-03-02T12:03:25;104927.00;;;24.47
75353;BMP280;76704;51.574;7.088;2024-03-02T12:05:55;106132.97;;;24.91
75353;BMP280;76704;51.574;7.088;2024-03-02T12:08:26;106190.31;;;25.11
75353;BMP280;76704;51.574;7.088;2024-03-02T12:10:58;106458.97;;;25.32
75353;BMP280;76704;51.574;7.088;2024-03-02T12:13:31;107007.47;;;25.58
75353;BMP280;76704;51.574;7.088;2024-03-02T12:16:03;107586.38;;;25.87
75353;BMP280;76704;51.574;7.088;2024-03-02T12:18:33;107450.72;;;26.04
75353;BMP280;76704;51.574;7.088;2024-03-02T12:21:00;107497.25;;;26.21
75353;BMP280;76704;51.574;7.088;2024-03-02T12:23:32;107486.63;;;26.37
75353;BMP280;76704;51.574;7.088;2024-03-02T12:26:02;107006.81;;;26.40
75353;BMP280;76704;51.574;7.088;2024-03-02T12:28:32;106737.06;;;26.43
75353;BMP280;76704;51.574;7.088;2024-03-02T12:31:01;106680.41;;;26.53
75353;BMP280;76704;51.574;7.088;2024-03-02T12:33:31;106810.63;;;26.67
75353;BMP280;76704;51.574;7.088;2024-03-02T12:36:01;106115.53;;;26.61
75353;BMP280;76704;51.574;7.088;2024-03-02T12:38:37;105847.66;;;26.63
75353;BMP280;76704;51.574;7.088;2024-03-02T12:41:05;105823.97;;;26.66
75353;BMP280;76704;51.574;7.088;2024-03-02T12:43:39;105337.69;;;26.65
75353;BMP280;76704;51.574;7.088;2024-03-02T12:46:08;104980.63;;;26.62
75353;BMP280;76704;51.574;7.088;2024-03-02T12:48:38;104437.53;;;26.61
75353;BMP280;76704;51.574;7.088;2024-03-02T12:51:10;103969.75;;;26.36
75353;BMP280;76704;51.574;7.088;2024-03-02T12:53:37;104103.22;;;26.60
75353;BMP280;76704;51.574;7.088;2024-03-02T12:56:08;103362.03;;;26.46
75353;BMP280;76704;51.574;7.088;2024-03-02T12:58:41;102998.75;;;26.41
75353;BMP280;76704;51.574;7.088;2024-03-02T13:01:14;102486.06;;;26.32
75353;BMP280;76704;51.574;7.088;2024-03-02T13:03:48;102070.38;;;26.26
75353;BMP280;76704;51.574;7.088;2024-03-02T13:06:17;101675.94;;;26.18
75353;BMP280;76704;51.574;7.088;2024-03-02T13:08:46;100945.75;;;25.98
75353;BMP280;76704;51.574;7.088;2024-03-02T13:11:16;100893.78;;;26.02
75353;BMP280;76704;51.574;7.088;2024-03-02T13:13:43;100807.84;;;25.97
75353;BMP280;76704;51.574;7.088;2024-03-02T13:16:13;100790.81;;;25.98
75353;BMP280;76704;51.574;7.088;2024-03-02T13:18:46;99821.53;;;25.84
75353;BMP280;76704;51.574;7.088;2024-03-02T13:21:13;99979.41;;;25.86
75353;BMP280;76704;51.574;7.088;2024-03-02T13:23:43;99558.59;;;25.77
75353;BMP280;76704;51.574;7.088;2024-03-02T13:26:11;99010.06;;;25.67
75353;BMP280;76704;51.574;7.088;2024-03-02T13:28:43;98611.78;;;25.51
75353;BMP280;76704;51.574;7.088;2024-03-02T13:31:12;97781.50;;;25.35
75353;BMP280;76704;51.574;7.088;2024-03-02T13:33:40;97283.47;;;25.23
75353;BMP280;76704;51.574;7.088;2024-03-02T13:36:12;96736.19;;;25.05
75353;BMP280;76704;51.574;7.088;2024-03-02T13:38:42;96134.38;;;24.89
75353;BMP280;76704;51.574;7.088;2024-03-02T13:41:11;95479.38;;;24.77
75353;BMP280;76704;51.574;7.088;2024-03-02T13:43:41;95256.28;;;24.69
75353;BMP280;76704;51.574;7.088;2024-03-02T13:46:11;94815.22;;;24.53
75353;BMP280;76704;51.574;7.088;2024-03-02T13:48:42;94402.13;;;24.42
75353;BMP280;76704;51.574;7.088;2024-03-02T13:51:12;93924.53;;;24.29
75353;BMP280;76704;51.574;7.088;2024-03-02T13:53:42;93743.78;;;24.18
75353;BMP280;76704;51.574;7.088;2024-03-02T13:56:11;92535.28;;;23.93
75353;BMP280;76704;51.574;7.088;2024-03-02T13:58:39;93326.84;;;23.99
75353;BMP280;76704;51.574;7.088;2024-03-02T14:01:06;93388.22;;;24.04
75353;BMP280;76704;51.574;7.088;2024-03-02T14:03:38;93068.88;;;23.95
75353;BMP280;76704;51.574;7.088;2024-03-02T14:06:07;92756.53;;;23.88
75353;BMP280;76704;51.574;7.088;2024-03-02T14:08:35;92610.44;;;23.76
75353;BMP280;76704;51.574;7.088;2024-03-02T14:11:04;92204.09;;;23.66
75353;BMP280;76704;51.574;7.088;2024-03-02T14:13:34;92231.59;;;23.66
75353;BMP280;76704;51.574;7.088;2024-03-02T14:16:04;91770.97;;;23.47
75353;BMP280;76704;51.574;7.088;2024-03-02T14:18:32;91522.41;;;23.46
75353;BMP280;76704;51.574;7.088;2024-03-02T14:21:00;91259.31;;;23.37
75353;BMP280;76704;51.574;7.088;2024-03-02T14:23:30;91251.06;;;23.34
75353;BMP280;76704;51.574;7.088;2024-03-02T14:26:00;91126.75;;;23.28
75353;BMP280;76704;51.574;7.088;2024-03-02T14:28:30;91060.88;;;23.24
75353;BMP280;76704;51.574;7.088;2024-03-02T14:31:20;90618.25;;;23.15
75353;BMP280;76704;51.574;7.088;2024-03-02T14:33:47;90457.03;;;23.10